Time;durP1;ratioP1;P1;durP2;ratioP2;P2;SDS_P1;SDS_P2;PMS_P1;PMS_P2;Temp;Humidity;BMP_temperature;BMP_pressure;BME280_temperature;BME280_humidity;BME280_pressure;Samples;Min_cycle;Max_cycle;Signal;HPM_P1;HPM_P2
2022/05/06 00:01:08;;;;;;;11.80;6.17;;;12.80;90.30;;;;;;5009398;28;20449;-45
2022/05/06 00:03:37;;;;;;;6.87;5.80;;;12.50;90.30;;;;;;5010110;28;20461;-45
2022/05/06 00:06:03;;;;;;;7.43;5.20;;;12.50;90.40;;;;;;5009503;28;20451;-45
2022/05/06 00:08:30;;;;;;;6.60;5.17;;;12.60;90.60;;;;;;5010433;28;20482;-44
2022/05/06 00:10:57;;;;;;;8.27;5.50;;;13.30;91.20;;;;;;5013067;28;20835;-45
2022/05/06 00:13:23;;;;;;;16.03;5.53;;;12.80;91.10;;;;;;5012679;28;20872;-44
2022/05/06 00:15:51;;;;;;;10.93;5.77;;;12.90;91.10;;;;;;5012425;28;20442;-44
2022/05/06 00:18:18;;;;;;;9.00;5.30;;;12.60;91.30;;;;;;5012987;28;20449;-44
2022/05/06 00:20:45;;;;;;;9.97;6.20;;;13.20;91.60;;;;;;5012364;28;20415;-45
2022/05/06 00:23:11;;;;;;;9.50;6.13;;;12.70;91.40;;;;;;5013225;28;20473;-45
2022/05/06 00:25:38;;;;;;;9.97;5.60;;;12.40;91.40;;;;;;5012707;28;20441;-43
2022/05/06 00:28:05;;;;;;;14.00;5.53;;;13.20;92.00;;;;;;5012129;28;20474;-44
2022/05/06 00:30:32;;;;;;;7.23;5.67;;;12.60;91.70;;;;;;5011795;28;20462;-45
2022/05/06 00:33:00;;;;;;;14.33;6.40;;;12.80;91.80;;;;;;5012083;28;20518;-44
2022/05/06 00:35:27;;;;;;;9.80;7.37;;;12.70;92.00;;;;;;5012127;28;20429;-44
2022/05/06 00:37:54;;;;;;;10.67;5.30;;;12.50;91.90;;;;;;5011878;28;20445;-45
2022/05/06 00:40:20;;;;;;;7.90;6.20;;;12.10;91.80;;;;;;5011432;28;20438;-44
2022/05/06 00:42:50;;;;;;;10.17;5.23;;;12.40;92.00;;;;;;5011851;28;20522;-45
2022/05/06 00:45:16;;;;;;;7.00;5.63;;;12.40;92.30;;;;;;5010644;28;20466;-45
2022/05/06 00:47:43;;;;;;;8.47;5.90;;;12.00;92.40;;;;;;5012115;28;20478;-45
2022/05/06 00:50:12;;;;;;;10.30;5.90;;;12.70;92.60;;;;;;5011603;28;20514;-44
2022/05/06 00:52:39;;;;;;;9.90;5.70;;;12.40;92.80;;;;;;5011688;28;20527;-44
2022/05/06 00:55:07;;;;;;;12.10;6.90;;;12.70;93.20;;;;;;5010685;28;20474;-44
2022/05/06 00:57:34;;;;;;;14.47;5.90;;;12.50;93.50;;;;;;5012084;28;20794;-45
2022/05/06 01:00:19;;;;;;;7.77;6.33;;;12.10;93.10;;;;;;5010188;28;20419;-44
2022/05/06 01:02:46;;;;;;;8.70;6.57;;;12.20;93.40;;;;;;5012514;28;20483;-45
2022/05/06 01:05:15;;;;;;;9.10;7.40;;;12.40;93.70;;;;;;5013258;28;20460;-44
2022/05/06 01:07:44;;;;;;;8.47;7.57;;;12.00;93.70;;;;;;5012465;28;20483;-44
2022/05/06 01:10:11;;;;;;;14.13;6.83;;;12.20;94.40;;;;;;5013000;28;20446;-44
2022/05/06 01:12:38;;;;;;;12.13;7.60;;;12.00;93.90;;;;;;5013683;28;20496;-44
2022/05/06 01:15:21;;;;;;;12.50;7.97;;;12.00;94.40;;;;;;5013177;28;20452;-44
2022/05/06 01:17:50;;;;;;;9.60;6.60;;;11.70;94.30;;;;;;5011981;28;20861;-46
2022/05/06 01:20:20;;;;;;;9.63;6.50;;;12.00;94.60;;;;;;5010225;28;20459;-44
2022/05/06 01:22:49;;;;;;;9.80;6.53;;;12.40;94.90;;;;;;5011461;28;20478;-44
2022/05/06 01:25:17;;;;;;;8.80;6.33;;;12.00;94.80;;;;;;5012095;28;20458;-45
2022/05/06 01:27:48;;;;;;;11.67;7.17;;;12.00;95.10;;;;;;5011058;28;20454;-44
2022/05/06 01:30:26;;;;;;;11.50;6.70;;;12.10;95.30;;;;;;5014205;28;20436;-44
2022/05/06 01:32:53;;;;;;;8.77;6.90;;;12.30;96.10;;;;;;5013686;28;20449;-44
2022/05/06 01:35:23;;;;;;;9.40;8.50;;;11.90;95.90;;;;;;5012761;28;20436;-45
2022/05/06 01:37:53;;;;;;;8.50;7.43;;;11.80;96.10;;;;;;5014492;28;20468;-44
2022/05/06 01:40:22;;;;;;;14.20;7.27;;;11.90;96.40;;;;;;5012651;28;21016;-44
2022/05/06 01:42:56;;;;;;;11.00;6.77;;;11.60;96.40;;;;;;5012537;28;20476;-45
2022/05/06 01:45:26;;;;;;;7.60;6.80;;;12.00;96.90;;;;;;5012224;28;20458;-45
2022/05/06 01:47:53;;;;;;;11.80;6.77;;;11.50;97.00;;;;;;5011621;28;20934;-45
2022/05/06 01:50:24;;;;;;;10.53;7.23;;;11.50;97.20;;;;;;5011691;28;20521;-45
2022/05/06 01:52:54;;;;;;;9.10;6.70;;;11.70;97.60;;;;;;5011453;28;20464;-45
2022/05/06 01:55:22;;;;;;;9.97;7.00;;;12.00;97.70;;;;;;5013721;28;20437;-45
2022/05/06 01:58:00;;;;;;;12.77;7.70;;;12.10;98.00;;;;;;5013040;28;20439;-45
2022/05/06 02:00:29;;;;;;;12.07;7.10;;;11.40;97.90;;;;;;5011601;28;20950;-44
2022/05/06 02:02:56;;;;;;;9.93;7.17;;;11.90;98.40;;;;;;5012684;28;20472;-44
2022/05/06 02:05:29;;;;;;;7.90;7.10;;;11.20;98.20;;;;;;5011671;28;20457;-44
2022/05/06 02:07:57;;;;;;;8.50;7.30;;;11.80;99.00;;;;;;5013124;28;20457;-44
2022/05/06 02:10:26;;;;;;;13.27;7.43;;;11.40;99.00;;;;;;5012879;28;20517;-44
2022/05/06 02:12:59;;;;;;;10.67;6.80;;;11.20;99.20;;;;;;5013027;28;20473;-44
2022/05/06 02:15:47;;;;;;;9.40;7.30;;;11.40;99.40;;;;;;5011140;28;20449;-44
2022/05/06 02:18:36;;;;;;;12.57;7.03;;;10.60;99.20;;;;;;5010593;28;20529;-44
2022/05/06 02:21:25;;;;;;;9.30;7.00;;;11.10;99.90;;;;;;5010166;28;20485;-43
2022/05/06 02:24:04;;;;;;;15.03;7.30;;;11.50;99.90;;;;;;5009816;28;20454;-44
2022/05/06 02:26:31;;;;;;;11.70;7.00;;;11.20;99.90;;;;;;5011746;28;20839;-44
2022/05/06 02:29:02;;;;;;;11.70;7.47;;;11.00;99.90;;;;;;5010210;28;20482;-44
2022/05/06 02:34:16;;;;;;;13.30;7.23;;;11.00;99.90;;;;;;5010851;28;20442;-44
2022/05/06 02:36:47;;;;;;;11.80;7.33;;;11.10;99.90;;;;;;5011008;28;20952;-44
2022/05/06 02:39:21;;;;;;;12.33;8.20;;;11.40;99.90;;;;;;5011531;28;20421;-45
2022/05/06 02:41:55;;;;;;;10.97;8.40;;;11.40;99.90;;;;;;5009090;28;20472;-44
2022/05/06 02:44:22;;;;;;;13.00;7.47;;;11.30;99.90;;;;;;5009280;28;20456;-44
2022/05/06 02:46:52;;;;;;;9.97;8.03;;;11.30;99.90;;;;;;5009093;28;20563;-44
2022/05/06 02:49:19;;;;;;;10.40;8.70;;;11.20;99.90;;;;;;5008715;28;20521;-44
2022/05/06 02:51:46;;;;;;;14.50;8.13;;;11.50;99.90;;;;;;5009209;28;21061;-44
2022/05/06 02:54:13;;;;;;;10.13;7.87;;;10.60;99.90;;;;;;5009332;28;20515;-44
2022/05/06 02:56:41;;;;;;;12.97;7.80;;;11.20;99.90;;;;;;5009780;28;20521;-43
2022/05/06 02:59:08;;;;;;;14.80;8.23;;;11.00;99.90;;;;;;5009658;28;20453;-44
2022/05/06 03:01:38;;;;;;;10.53;7.73;;;10.50;99.90;;;;;;5009325;28;20465;-44
2022/05/06 03:04:11;;;;;;;12.57;8.33;;;10.90;99.90;;;;;;5008887;28;20973;-44
2022/05/06 03:06:39;;;;;;;8.93;7.60;;;11.20;99.90;;;;;;5008685;28;20506;-45
2022/05/06 03:09:05;;;;;;;12.70;7.90;;;10.90;99.90;;;;;;5007707;28;20472;-44
2022/05/06 03:11:35;;;;;;;11.20;8.40;;;10.80;99.90;;;;;;5008078;28;20984;-45
2022/05/06 03:14:09;;;;;;;9.67;7.57;;;11.00;99.90;;;;;;5008338;28;20549;-45
2022/05/06 03:16:44;;;;;;;13.90;8.30;;;10.80;99.90;;;;;;5008347;28;20436;-45
2022/05/06 03:19:11;;;;;;;18.23;9.50;;;10.90;99.90;;;;;;5009149;28;20439;-45
2022/05/06 03:21:38;;;;;;;17.60;8.23;;;11.00;99.90;;;;;;5008302;28;20547;-44
2022/05/06 03:24:05;;;;;;;17.20;9.77;;;11.20;99.90;;;;;;5008059;28;20797;-43
2022/05/06 03:26:32;;;;;;;17.67;10.47;;;10.90;99.90;;;;;;5007781;28;20480;-44
2022/05/06 03:28:58;;;;;;;17.17;8.70;;;10.60;99.90;;;;;;5008782;28;20491;-44
2022/05/06 03:31:27;;;;;;;14.87;8.90;;;11.20;99.90;;;;;;5007575;28;20480;-45
2022/05/06 03:34:01;;;;;;;10.97;8.80;;;11.00;99.90;;;;;;5007894;28;20452;-44
2022/05/06 03:36:32;;;;;;;13.90;9.90;;;10.90;99.90;;;;;;5008379;28;20468;-43
2022/05/06 03:39:04;;;;;;;19.60;11.63;;;10.90;99.90;;;;;;5007833;28;20962;-44
2022/05/06 03:41:36;;;;;;;10.17;8.80;;;10.80;99.90;;;;;;5007560;28;20989;-44
2022/05/06 03:44:07;;;;;;;13.90;9.50;;;10.70;99.90;;;;;;5010405;28;20456;-44
2022/05/06 03:46:37;;;;;;;14.60;9.27;;;11.30;99.90;;;;;;5010983;28;20448;-44
2022/05/06 03:49:05;;;;;;;15.00;9.40;;;10.80;99.90;;;;;;5011958;28;20480;-45
2022/05/06 03:51:32;;;;;;;13.57;9.50;;;11.00;99.90;;;;;;5010741;28;20975;-45
2022/05/06 03:54:10;;;;;;;13.67;9.50;;;11.00;99.90;;;;;;5012040;28;20471;-45
2022/05/06 03:56:37;;;;;;;12.70;8.73;;;11.00;99.90;;;;;;5010839;28;21029;-44
2022/05/06 03:59:07;;;;;;;15.90;9.90;;;10.70;99.90;;;;;;5010537;28;20448;-44
2022/05/06 04:01:34;;;;;;;13.10;9.07;;;10.90;99.90;;;;;;5010871;28;20563;-45
2022/05/06 04:04:05;;;;;;;18.33;9.80;;;10.70;99.90;;;;;;5011365;28;20481;-44
2022/05/06 04:06:34;;;;;;;14.07;9.23;;;11.10;99.90;;;;;;5011118;28;20475;-44
2022/05/06 04:09:01;;;;;;;11.80;8.43;;;10.90;99.90;;;;;;5010149;28;20488;-43
2022/05/06 04:11:30;;;;;;;17.17;9.77;;;11.20;99.90;;;;;;5010849;28;20468;-44
2022/05/06 04:14:01;;;;;;;18.27;11.20;;;10.80;99.90;;;;;;5010964;28;20816;-44
2022/05/06 04:16:30;;;;;;;16.10;10.10;;;11.20;99.90;;;;;;5010742;28;20444;-44
2022/05/06 04:19:00;;;;;;;14.20;9.53;;;11.30;99.90;;;;;;5010644;28;20449;-44
2022/05/06 04:24:17;;;;;;;16.23;9.40;;;11.10;99.90;;;;;;5010821;28;20586;-44
2022/05/06 04:26:44;;;;;;;20.97;10.83;;;11.20;99.90;;;;;;5011114;28;20518;-45
2022/05/06 04:29:12;;;;;;;18.07;11.30;;;11.30;99.90;;;;;;5010309;28;20480;-45
2022/05/06 04:31:39;;;;;;;23.00;10.80;;;11.40;99.90;;;;;;5010931;28;20503;-44
2022/05/06 04:34:09;;;;;;;18.60;10.27;;;12.00;99.90;;;;;;5010753;28;20967;-44
2022/05/06 04:36:39;;;;;;;16.63;10.97;;;11.50;99.90;;;;;;5010878;28;20457;-44
2022/05/06 04:39:06;;;;;;;15.33;9.90;;;12.30;99.90;;;;;;5010394;28;20602;-44
2022/05/06 04:41:39;;;;;;;17.10;10.40;;;12.30;99.90;;;;;;5011580;28;20969;-44
2022/05/06 04:44:07;;;;;;;14.70;10.43;;;12.00;99.90;;;;;;5010031;28;20485;-44
2022/05/06 04:46:36;;;;;;;16.00;10.10;;;12.40;99.90;;;;;;5010106;28;20456;-45
2022/05/06 04:49:03;;;;;;;14.07;10.83;;;12.40;99.90;;;;;;5009811;28;20473;-45
2022/05/06 04:51:31;;;;;;;15.93;11.13;;;12.30;99.90;;;;;;5010059;28;20531;-45
2022/05/06 04:54:00;;;;;;;16.80;10.67;;;12.70;99.90;;;;;;5009221;28;20472;-45
2022/05/06 04:56:26;;;;;;;14.30;10.47;;;12.70;99.90;;;;;;5010872;28;20429;-46
2022/05/06 04:59:02;;;;;;;15.97;10.03;;;12.90;99.90;;;;;;5010134;28;20457;-44
2022/05/06 05:01:39;;;;;;;15.70;10.10;;;12.90;99.90;;;;;;5010595;28;20900;-45
2022/05/06 05:04:06;;;;;;;15.60;10.63;;;12.60;99.90;;;;;;5010491;28;20458;-45
2022/05/06 05:06:35;;;;;;;14.20;10.30;;;13.60;99.90;;;;;;5010306;28;20824;-45
2022/05/06 05:09:05;;;;;;;14.33;10.00;;;13.00;99.90;;;;;;5009228;28;20501;-45
2022/05/06 05:11:34;;;;;;;19.63;9.83;;;13.00;99.90;;;;;;5009681;28;20474;-45
2022/05/06 05:14:09;;;;;;;16.00;8.80;;;13.40;99.90;;;;;;5009765;28;20989;-44
2022/05/06 05:16:39;;;;;;;21.30;10.97;;;13.00;99.90;;;;;;5009701;28;20452;-45
2022/05/06 05:19:07;;;;;;;19.73;9.30;;;14.10;99.90;;;;;;5010721;28;20439;-45
2022/05/06 05:21:38;;;;;;;15.77;8.90;;;13.60;99.90;;;;;;5009627;28;20491;-45
2022/05/06 05:24:06;;;;;;;12.83;9.70;;;13.70;99.90;;;;;;5009714;28;20460;-45
2022/05/06 05:26:36;;;;;;;11.57;9.00;;;13.80;99.70;;;;;;5009331;28;20447;-44
2022/05/06 05:29:04;;;;;;;15.20;9.40;;;13.90;99.30;;;;;;5009181;28;20569;-45
2022/05/06 05:31:31;;;;;;;12.13;8.47;;;14.20;99.30;;;;;;5009184;28;20479;-45
2022/05/06 05:33:59;;;;;;;14.07;9.30;;;13.80;98.90;;;;;;5009146;28;20485;-45
2022/05/06 05:36:26;;;;;;;14.07;9.00;;;14.20;98.80;;;;;;5008815;28;20543;-45
2022/05/06 05:38:55;;;;;;;15.03;8.70;;;13.50;98.20;;;;;;5009479;28;20459;-44
2022/05/06 05:41:24;;;;;;;12.10;8.47;;;14.40;98.50;;;;;;5008359;28;20448;-46
2022/05/06 05:49:22;;;;;;;16.90;9.83;;;14.80;97.90;;;;;;5007818;28;20621;-46
2022/05/06 05:51:49;;;;;;;12.70;9.70;;;14.70;97.50;;;;;;5008865;28;20545;-45
2022/05/06 05:54:16;;;;;;;15.70;10.07;;;15.10;97.40;;;;;;5008881;28;20502;-46
2022/05/06 05:56:45;;;;;;;14.17;9.60;;;15.00;97.00;;;;;;5009477;28;20621;-45
2022/05/06 05:59:12;;;;;;;16.50;10.30;;;15.00;96.50;;;;;;5007742;28;20534;-45
2022/05/06 06:01:39;;;;;;;10.73;9.00;;;14.70;96.10;;;;;;5008224;28;20476;-45
2022/05/06 06:04:08;;;;;;;11.47;8.40;;;15.10;96.00;;;;;;5008547;28;20981;-45
2022/05/06 06:06:38;;;;;;;15.83;9.53;;;14.80;95.40;;;;;;5008000;28;21024;-45
2022/05/06 06:09:05;;;;;;;13.00;9.10;;;14.90;95.20;;;;;;5008104;28;20449;-44
2022/05/06 06:11:32;;;;;;;11.43;6.40;;;15.00;95.00;;;;;;5008612;28;20471;-46
2022/05/06 06:14:00;;;;;;;13.03;7.90;;;14.90;94.20;;;;;;5008195;28;20507;-44
2022/05/06 06:16:27;;;;;;;11.20;7.23;;;14.90;93.80;;;;;;5008173;28;20458;-45
2022/05/06 06:18:55;;;;;;;13.60;7.87;;;15.60;93.60;;;;;;5008175;28;20459;-45
2022/05/06 06:21:23;;;;;;;12.57;8.37;;;15.70;93.40;;;;;;5008261;28;20517;-46
2022/05/06 06:23:50;;;;;;;12.40;7.63;;;15.40;92.90;;;;;;5008383;28;20456;-44
2022/05/06 06:26:17;;;;;;;13.63;7.63;;;15.10;92.50;;;;;;5008787;28;20444;-44
2022/05/06 06:28:44;;;;;;;15.40;7.60;;;15.40;92.30;;;;;;5008961;28;20516;-44
2022/05/06 06:31:14;;;;;;;10.27;6.53;;;16.10;92.40;;;;;;5009155;28;20511;-45
2022/05/06 06:33:42;;;;;;;11.60;7.27;;;15.10;91.60;;;;;;5009947;28;20448;-44
2022/05/06 06:36:14;;;;;;;15.93;7.80;;;15.70;91.70;;;;;;5009668;28;20909;-45
2022/05/06 06:38:41;;;;;;;19.07;8.60;;;15.30;91.20;;;;;;5008600;28;20461;-45
2022/05/06 06:41:09;;;;;;;13.30;7.83;;;15.60;91.10;;;;;;5008503;28;20449;-45
2022/05/06 06:43:36;;;;;;;8.80;5.70;;;15.80;91.00;;;;;;5009884;28;20544;-45
2022/05/06 06:46:17;;;;;;;9.60;5.10;;;15.90;90.60;;;;;;5007971;28;20463;-45
2022/05/06 06:49:13;;;;;;;10.00;5.17;;;16.10;90.30;;;;;;5021163;28;20453;-45
2022/05/06 06:51:54;;;;;;;8.53;5.60;;;15.80;90.10;;;;;;5007546;28;20464;-44
2022/05/06 06:54:20;;;;;;;9.47;4.80;;;16.00;90.30;;;;;;5009539;28;20787;-44
2022/05/06 06:56:47;;;;;;;10.40;6.23;;;15.70;90.20;;;;;;5009268;28;20436;-45
2022/05/06 06:59:13;;;;;;;8.77;5.03;;;15.60;90.20;;;;;;5007522;28;20457;-45
2022/05/06 07:01:41;;;;;;;11.17;6.57;;;15.90;90.10;;;;;;5008680;28;20460;-44
2022/05/06 07:04:08;;;;;;;14.93;7.07;;;15.90;90.20;;;;;;5007430;28;20891;-45
2022/05/06 07:12:04;;;;;;;9.20;7.33;;;16.00;90.00;;;;;;5008998;28;20473;-46
2022/05/06 07:14:36;;;;;;;10.30;7.00;;;16.20;90.10;;;;;;5007877;28;21044;-44
2022/05/06 07:17:05;;;;;;;11.97;7.63;;;16.50;90.30;;;;;;5007766;28;20445;-45
2022/05/06 07:19:32;;;;;;;14.10;8.20;;;16.20;90.10;;;;;;5011370;28;20491;-45
2022/05/06 07:21:58;;;;;;;13.20;9.03;;;16.20;90.20;;;;;;5012328;28;20479;-45
2022/05/06 07:24:25;;;;;;;13.90;8.37;;;16.40;90.60;;;;;;5012457;28;20451;-45
2022/05/06 07:26:53;;;;;;;11.27;7.70;;;16.40;90.60;;;;;;5012252;28;20441;-45
2022/05/06 07:29:20;;;;;;;15.20;8.60;;;16.20;90.50;;;;;;5010518;28;20480;-45
2022/05/06 07:31:47;;;;;;;9.90;8.13;;;16.60;90.50;;;;;;5012231;28;20454;-45
2022/05/06 07:34:15;;;;;;;21.13;8.87;;;16.40;90.40;;;;;;5012342;28;20949;-45
2022/05/06 07:36:42;;;;;;;14.83;9.40;;;16.50;90.50;;;;;;5011731;28;20429;-44
2022/05/06 07:39:11;;;;;;;14.30;10.50;;;16.50;90.70;;;;;;5012054;28;20806;-45
2022/05/06 07:41:38;;;;;;;13.67;8.60;;;16.30;90.70;;;;;;5011901;28;20981;-45
2022/05/06 07:44:05;;;;;;;11.93;9.70;;;16.60;90.90;;;;;;5011882;28;20437;-45
2022/05/06 07:46:32;;;;;;;12.40;9.37;;;16.50;90.90;;;;;;5011877;28;20475;-45
2022/05/06 07:48:58;;;;;;;10.63;9.47;;;16.40;90.80;;;;;;5011727;28;20436;-46
2022/05/06 07:51:27;;;;;;;12.50;9.20;;;16.60;90.90;;;;;;5010252;28;20481;-45
2022/05/06 07:53:56;;;;;;;13.00;9.10;;;16.50;90.80;;;;;;5011558;28;20473;-46
2022/05/06 07:56:22;;;;;;;15.10;9.87;;;16.80;90.90;;;;;;5011910;28;20468;-45
2022/05/06 07:58:49;;;;;;;13.90;9.57;;;16.90;90.90;;;;;;5011309;28;20453;-45
2022/05/06 08:01:16;;;;;;;14.03;9.43;;;16.70;90.80;;;;;;5010308;28;20468;-45
2022/05/06 08:06:30;;;;;;;14.57;10.17;;;17.30;90.90;;;;;;5010226;28;20460;-45
2022/05/06 08:08:56;;;;;;;13.93;9.73;;;17.30;90.80;;;;;;5011357;28;20854;-45
2022/05/06 08:11:23;;;;;;;11.40;8.87;;;17.30;90.60;;;;;;5011384;28;20493;-44
2022/05/06 08:13:50;;;;;;;16.70;8.40;;;17.20;90.30;;;;;;5010437;28;20531;-46
2022/05/06 08:16:16;;;;;;;12.37;8.77;;;17.40;90.20;;;;;;5012101;28;20449;-45
2022/05/06 08:18:43;;;;;;;15.20;10.00;;;17.40;90.10;;;;;;5011320;28;20493;-45
2022/05/06 08:21:10;;;;;;;15.20;10.43;;;17.40;90.00;;;;;;5011636;28;20440;-46
2022/05/06 08:23:37;;;;;;;16.13;9.70;;;17.30;89.50;;;;;;5011738;28;20438;-47
2022/05/06 08:26:05;;;;;;;12.27;10.73;;;17.50;89.50;;;;;;5012160;28;20499;-45
2022/05/06 08:28:32;;;;;;;14.70;10.27;;;17.40;89.10;;;;;;5008817;28;20511;-45
2022/05/06 08:30:58;;;;;;;11.07;8.93;;;17.00;88.10;;;;;;5011574;28;20478;-45
2022/05/06 08:33:26;;;;;;;11.17;8.87;;;17.70;88.40;;;;;;5009262;28;20474;-45
2022/05/06 08:35:53;;;;;;;10.60;8.50;;;18.10;88.30;;;;;;5010962;28;20450;-45
2022/05/06 08:38:21;;;;;;;13.63;8.93;;;18.10;87.70;;;;;;5011410;28;20435;-44
2022/05/06 08:40:50;;;;;;;11.70;8.60;;;17.60;86.60;;;;;;5011009;28;20541;-45
2022/05/06 08:43:18;;;;;;;12.93;9.10;;;18.20;86.60;;;;;;5011093;28;20549;-45
2022/05/06 08:51:17;;;;;;;15.10;11.13;;;18.60;86.30;;;;;;5010731;28;21035;-45
2022/05/06 08:53:43;;;;;;;13.43;9.57;;;18.10;84.80;;;;;;5010420;28;20926;-45
2022/05/06 08:56:11;;;;;;;10.23;8.23;;;18.20;84.40;;;;;;5010841;28;20450;-45
2022/05/06 08:58:38;;;;;;;9.10;6.43;;;18.40;84.50;;;;;;5010168;28;20443;-45
2022/05/06 09:01:06;;;;;;;11.20;7.17;;;18.60;84.30;;;;;;5010420;28;20526;-46
2022/05/06 09:03:33;;;;;;;10.73;8.10;;;18.70;83.70;;;;;;5010922;28;20438;-45
2022/05/06 09:06:00;;;;;;;10.53;8.33;;;18.40;82.80;;;;;;5009755;28;20456;-45
2022/05/06 09:08:37;;;;;;;7.70;6.90;;;18.80;83.50;;;;;;5010524;28;20536;-44
2022/05/06 09:11:07;;;;;;;11.03;8.30;;;18.80;81.60;;;;;;5011221;28;20524;-45
2022/05/06 09:13:36;;;;;;;10.57;7.80;;;18.70;82.10;;;;;;5010690;28;20510;-45
2022/05/06 09:19:17;;;;;;;9.57;7.80;;;19.30;81.00;;;;;;5010304;28;20441;-45
2022/05/06 09:22:02;;;;;;;10.97;6.57;;;19.00;80.70;;;;;;5009494;28;20472;-45
2022/05/06 09:24:30;;;;;;;12.70;8.27;;;19.20;79.90;;;;;;5010610;28;20437;-45
2022/05/06 09:27:03;;;;;;;11.63;8.27;;;18.90;80.10;;;;;;5010039;28;20432;-45
2022/05/06 09:29:36;;;;;;;11.33;7.73;;;19.00;80.40;;;;;;5009653;28;20464;-45
2022/05/06 09:32:18;;;;;;;10.63;7.93;;;18.90;79.90;;;;;;5010004;28;20834;-46
2022/05/06 09:34:46;;;;;;;11.60;7.10;;;19.20;80.20;;;;;;5009888;28;20438;-45
2022/05/06 09:37:28;;;;;;;11.20;6.30;;;19.30;80.60;;;;;;5010230;28;20445;-45
2022/05/06 09:40:02;;;;;;;11.70;7.67;;;19.10;80.00;;;;;;5010421;28;20439;-45
2022/05/06 09:42:29;;;;;;;17.50;8.67;;;19.20;79.10;;;;;;5010184;28;20466;-45
2022/05/06 09:44:57;;;;;;;9.70;5.87;;;19.30;79.30;;;;;;5010338;28;20432;-46
2022/05/06 09:47:25;;;;;;;11.97;6.13;;;19.20;78.40;;;;;;5010257;28;20436;-46
2022/05/06 09:49:52;;;;;;;8.67;5.40;;;19.20;77.00;;;;;;5009566;28;20805;-46
2022/05/06 09:52:19;;;;;;;13.10;7.13;;;19.10;76.70;;;;;;5010006;28;20491;-45
2022/05/06 09:54:48;;;;;;;7.40;5.97;;;19.20;77.00;;;;;;5010584;28;20949;-45
2022/05/06 09:57:16;;;;;;;15.57;6.10;;;18.80;76.70;;;;;;5010086;28;20924;-45
2022/05/06 09:59:43;;;;;;;14.20;6.23;;;19.20;77.20;;;;;;5009839;28;20782;-45
2022/05/06 10:02:11;;;;;;;12.77;7.40;;;18.80;76.30;;;;;;5010141;28;20463;-45
2022/05/06 10:04:38;;;;;;;6.87;5.53;;;19.40;76.90;;;;;;5009707;28;20973;-45
2022/05/06 10:07:08;;;;;;;11.60;6.23;;;19.10;76.40;;;;;;5009359;28;20455;-45
2022/05/06 10:09:50;;;;;;;8.63;5.80;;;19.60;76.80;;;;;;5009723;28;20779;-45
2022/05/06 10:12:19;;;;;;;8.53;5.70;;;19.40;75.90;;;;;;5010056;28;20487;-44
2022/05/06 10:14:46;;;;;;;13.43;6.50;;;19.40;75.60;;;;;;5009804;28;20429;-44
2022/05/06 10:17:55;;;;;;;9.03;6.00;;;19.60;75.60;;;;;;5009973;28;20432;-45
2022/05/06 10:20:58;;;;;;;8.20;5.63;;;19.40;74.40;;;;;;5006458;28;20463;-45
2022/05/06 10:23:43;;;;;;;7.23;4.90;;;19.40;74.40;;;;;;5024688;28;20486;-44
2022/05/06 10:26:30;;;;;;;6.90;5.37;;;19.60;74.30;;;;;;5008828;28;20444;-44
2022/05/06 10:34:32;;;;;;;10.73;4.93;;;19.30;73.70;;;;;;5009203;28;20432;-42
2022/05/06 10:37:02;;;;;;;8.60;4.73;;;19.20;73.60;;;;;;5009026;28;20466;-44
2022/05/06 10:39:30;;;;;;;8.20;4.40;;;19.40;72.90;;;;;;5008477;28;20461;-44
2022/05/06 10:42:00;;;;;;;8.53;4.10;;;19.40;72.40;;;;;;5008750;28;20790;-43
2022/05/06 10:44:49;;;;;;;7.10;4.53;;;19.50;72.10;;;;;;5009199;28;20451;-43
2022/05/06 10:47:50;;;;;;;8.63;4.30;;;19.50;71.40;;;;;;5004402;28;20449;-44
2022/05/06 10:50:21;;;;;;;7.37;3.80;;;19.60;71.70;;;;;;5008516;28;20469;-43
2022/05/06 10:52:49;;;;;;;5.40;3.70;;;19.70;71.30;;;;;;5007338;28;21043;-43
2022/05/06 10:55:18;;;;;;;5.80;4.23;;;19.80;70.80;;;;;;5008906;28;20442;-44
2022/05/06 10:57:51;;;;;;;5.70;4.17;;;19.50;69.70;;;;;;5008148;28;20433;-46
2022/05/06 11:00:19;;;;;;;6.10;4.93;;;19.80;70.10;;;;;;5008453;28;20440;-44
2022/05/06 11:02:46;;;;;;;8.53;5.10;;;19.60;70.20;;;;;;5008253;28;20448;-44
2022/05/06 11:05:14;;;;;;;6.50;4.90;;;19.70;71.10;;;;;;5008396;28;20909;-44
2022/05/06 11:07:44;;;;;;;8.67;4.77;;;19.80;71.60;;;;;;5007818;28;20468;-44
2022/05/06 11:10:14;;;;;;;8.20;4.30;;;19.60;71.20;;;;;;5008509;28;20428;-43
2022/05/06 11:12:42;;;;;;;8.80;4.43;;;19.50;71.60;;;;;;5008091;28;20493;-43
2022/05/06 11:15:10;;;;;;;7.03;4.73;;;19.60;71.90;;;;;;5008412;28;20509;-43
2022/05/06 11:17:38;;;;;;;9.07;4.67;;;19.80;72.10;;;;;;5008466;28;20440;-44
2022/05/06 11:20:16;;;;;;;5.00;3.73;;;19.40;71.20;;;;;;5007891;28;20788;-44
2022/05/06 11:22:51;;;;;;;6.03;3.03;;;19.60;70.50;;;;;;5008016;28;20491;-43
2022/05/06 11:25:17;;;;;;;5.67;3.40;;;19.60;70.20;;;;;;5008702;28;20444;-43
2022/05/06 11:27:44;;;;;;;4.63;3.97;;;19.60;70.00;;;;;;5007988;28;20445;-43
2022/05/06 11:30:17;;;;;;;5.60;3.70;;;19.50;70.00;;;;;;5007701;28;20436;-42
2022/05/06 11:32:48;;;;;;;6.13;3.67;;;19.70;69.60;;;;;;5008011;28;20987;-44
2022/05/06 11:35:20;;;;;;;5.40;3.80;;;19.70;69.20;;;;;;5008032;28;20465;-44
2022/05/06 11:37:47;;;;;;;6.60;3.60;;;19.50;69.10;;;;;;5008177;28;20516;-44
2022/05/06 11:40:35;;;;;;;4.43;3.60;;;19.80;69.00;;;;;;5008254;28;20437;-44
2022/05/06 11:43:03;;;;;;;5.87;3.10;;;19.70;69.10;;;;;;5008354;28;20472;-44
2022/05/06 11:48:18;;;;;;;4.73;2.97;;;20.00;68.40;;;;;;5008867;28;20502;-43
2022/05/06 11:50:47;;;;;;;7.73;3.30;;;19.90;67.50;;;;;;5007727;28;20509;-44
2022/05/06 11:53:16;;;;;;;4.93;3.70;;;20.30;67.40;;;;;;4993627;28;20463;-44
2022/05/06 11:55:46;;;;;;;6.83;3.87;;;20.40;67.10;;;;;;4988082;28;20934;-44
2022/05/06 11:58:14;;;;;;;6.33;3.97;;;20.00;66.40;;;;;;4988022;28;20983;-43
2022/05/06 12:00:41;;;;;;;5.63;3.53;;;20.40;67.00;;;;;;4993268;28;20452;-42
2022/05/06 12:03:09;;;;;;;7.17;4.60;;;20.10;66.00;;;;;;5007517;28;20567;-43
2022/05/06 12:05:37;;;;;;;6.53;3.33;;;20.40;66.70;;;;;;5009618;28;20445;-43
2022/05/06 12:08:05;;;;;;;5.53;2.70;;;20.10;65.80;;;;;;5011937;28;20540;-43
2022/05/06 12:10:32;;;;;;;4.30;2.73;;;20.00;65.80;;;;;;5010832;28;20897;-43
2022/05/06 12:13:04;;;;;;;3.57;2.87;;;20.30;65.70;;;;;;5011269;28;20859;-45
2022/05/06 12:15:31;;;;;;;3.60;2.40;;;20.10;65.10;;;;;;5011489;28;20513;-46
2022/05/06 12:18:03;;;;;;;5.10;2.60;;;20.10;64.80;;;;;;5004712;28;20450;-44
2022/05/06 12:20:36;;;;;;;5.83;3.10;;;20.10;64.50;;;;;;4991462;28;20458;-44
2022/05/06 12:23:04;;;;;;;6.80;3.23;;;20.00;63.80;;;;;;4991448;28;20562;-44
2022/05/06 12:25:31;;;;;;;4.33;3.00;;;20.30;64.70;;;;;;4992080;28;20450;-43
2022/05/06 12:28:10;;;;;;;6.50;3.70;;;20.40;65.10;;;;;;4993345;28;20447;-43
2022/05/06 12:30:38;;;;;;;3.43;3.10;;;20.20;65.20;;;;;;5011039;28;20471;-43
2022/05/06 12:33:07;;;;;;;5.10;2.80;;;20.30;65.50;;;;;;5010657;28;20927;-43
2022/05/06 12:35:55;;;;;;;5.37;2.70;;;20.30;65.10;;;;;;5010627;28;20530;-46
2022/05/06 12:38:22;;;;;;;4.30;3.10;;;20.20;64.60;;;;;;5011022;28;20436;-49
2022/05/06 12:40:49;;;;;;;3.40;2.80;;;20.50;65.10;;;;;;5010509;28;20446;-43
2022/05/06 12:43:17;;;;;;;6.30;3.13;;;20.30;64.30;;;;;;5010893;28;20453;-43
2022/05/06 12:45:52;;;;;;;4.53;3.17;;;20.70;64.10;;;;;;5011462;28;20782;-43
2022/05/06 12:51:03;;;;;;;4.60;2.20;;;20.80;62.60;;;;;;5010418;28;20438;-45
2022/05/06 12:53:30;;;;;;;5.20;2.50;;;21.00;60.50;;;;;;5011141;28;20507;-44
2022/05/06 12:55:56;;;;;;;6.60;2.50;;;21.00;59.90;;;;;;5010216;28;20462;-44
2022/05/06 12:58:27;;;;;;;5.10;2.30;;;20.80;59.70;;;;;;5011301;28;20510;-44
2022/05/06 13:00:54;;;;;;;4.50;2.40;;;21.10;59.80;;;;;;5010392;28;20440;-43
2022/05/06 13:03:21;;;;;;;6.27;3.20;;;21.30;60.50;;;;;;5010444;28;20968;-45
2022/05/06 13:05:48;;;;;;;4.50;2.77;;;21.50;60.80;;;;;;5010273;28;21001;-44
2022/05/06 13:08:14;;;;;;;5.70;3.17;;;21.50;60.60;;;;;;5010483;28;20775;-44
2022/05/06 13:10:41;;;;;;;4.00;2.70;;;21.60;60.80;;;;;;5010144;28;20443;-44
2022/05/06 13:13:08;;;;;;;5.03;2.50;;;21.70;59.80;;;;;;5010451;28;20511;-44
2022/05/06 13:15:36;;;;;;;3.47;2.10;;;21.70;59.50;;;;;;5009333;28;20513;-46
2022/05/06 13:18:03;;;;;;;5.07;2.20;;;21.50;58.20;;;;;;5010380;28;20439;-42
2022/05/06 13:20:31;;;;;;;3.90;2.20;;;22.00;58.10;;;;;;5008322;28;20437;-45
2022/05/06 13:22:57;;;;;;;2.13;1.53;;;21.70;57.00;;;;;;5008281;28;20483;-43
2022/05/06 13:25:24;;;;;;;6.70;2.70;;;22.10;55.90;;;;;;5010528;28;20434;-44
2022/05/06 13:27:51;;;;;;;2.30;1.93;;;22.10;56.00;;;;;;5010161;28;20678;-43
2022/05/06 13:30:17;;;;;;;2.20;1.93;;;22.20;56.20;;;;;;5009838;28;20439;-45
2022/05/06 13:32:45;;;;;;;4.47;1.90;;;22.00;55.70;;;;;;5008252;28;20531;-43